Time;durP1;ratioP1;P1;durP2;ratioP2;P2;SDS_P1;SDS_P2;PMS_P1;PMS_P2;Temp;Humidity;BMP_temperature;BMP_pressure;BME280_temperature;BME280_humidity;BME280_pressure;Samples;Min_cycle;Max_cycle;Signal;HPM_P1;HPM_P2
2022/08/18 00:02:28;;;;;;;15.00;8.60;;;19.00;99.90;;;;;;5103598;28;20040;-67
2022/08/18 00:04:54;;;;;;;15.88;9.27;;;19.00;99.90;;;;;;5102633;28;20073;-67
2022/08/18 00:07:25;;;;;;;16.80;8.10;;;19.00;99.90;;;;;;5104238;28;20080;-67
2022/08/18 00:09:52;;;;;;;15.57;7.18;;;18.90;99.90;;;;;;5105876;28;20115;-67
2022/08/18 00:12:29;;;;;;;17.55;7.55;;;18.90;99.90;;;;;;5106480;28;20528;-67
2022/08/18 00:14:56;;;;;;;19.88;7.68;;;18.90;99.90;;;;;;5104757;28;20158;-67
2022/08/18 00:17:22;;;;;;;17.20;7.82;;;18.90;99.90;;;;;;5107705;28;20103;-67
2022/08/18 00:19:48;;;;;;;12.63;7.90;;;18.90;99.90;;;;;;5108676;28;20061;-67
2022/08/18 00:22:17;;;;;;;16.73;7.95;;;18.80;99.90;;;;;;5107863;28;20040;-67
2022/08/18 00:24:48;;;;;;;15.07;7.40;;;18.90;99.90;;;;;;5106414;28;20048;-67
2022/08/18 00:27:20;;;;;;;15.73;7.53;;;18.80;99.90;;;;;;5107198;28;20066;-67
2022/08/18 00:29:46;;;;;;;17.63;7.22;;;18.80;99.90;;;;;;5106692;28;20036;-67
2022/08/18 00:32:14;;;;;;;19.65;7.20;;;18.70;99.90;;;;;;5107445;28;20074;-67
2022/08/18 00:34:40;;;;;;;19.83;8.23;;;18.60;99.90;;;;;;5107085;28;20064;-67
2022/08/18 00:37:06;;;;;;;14.85;7.30;;;18.50;99.90;;;;;;5105966;28;20403;-67
2022/08/18 00:39:33;;;;;;;14.13;7.00;;;18.40;99.90;;;;;;5107054;28;20054;-67
2022/08/18 00:41:59;;;;;;;17.50;8.07;;;18.40;99.90;;;;;;5106785;28;20052;-67
2022/08/18 00:44:25;;;;;;;19.25;8.10;;;18.30;99.90;;;;;;5106932;28;20055;-67
2022/08/18 00:46:51;;;;;;;14.52;8.68;;;18.30;99.90;;;;;;5105567;28;20044;-67
2022/08/18 00:49:17;;;;;;;18.88;9.13;;;18.30;99.90;;;;;;5102830;28;20054;-67
2022/08/18 00:51:48;;;;;;;23.35;10.02;;;18.30;99.90;;;;;;5108202;28;20118;-67
2022/08/18 00:54:21;;;;;;;17.60;9.48;;;18.30;99.90;;;;;;5106215;28;20055;-67
2022/08/18 00:56:50;;;;;;;19.50;9.73;;;18.20;99.90;;;;;;5102538;28;20044;-67
2022/08/18 00:59:43;;;;;;;21.27;9.73;;;18.20;99.90;;;;;;5107376;28;20040;-67
2022/08/18 01:02:16;;;;;;;21.45;9.68;;;18.30;99.90;;;;;;5098807;28;20047;-66
2022/08/18 01:04:52;;;;;;;19.35;10.00;;;18.20;99.90;;;;;;5105480;28;20078;-67
2022/08/18 01:07:34;;;;;;;20.45;9.77;;;18.20;99.90;;;;;;5105514;28;20056;-67
2022/08/18 01:10:02;;;;;;;21.33;10.32;;;18.30;99.90;;;;;;5088351;28;20047;-67
2022/08/18 01:12:28;;;;;;;21.58;10.20;;;18.20;99.90;;;;;;5107771;28;20118;-67
2022/08/18 01:14:55;;;;;;;20.63;11.00;;;18.20;99.90;;;;;;5105121;28;20112;-67
2022/08/18 01:23:00;;;;;;;36.03;11.90;;;18.30;99.90;;;;;;5105428;28;20138;-67
2022/08/18 01:28:10;;;;;;;28.58;10.00;;;18.40;99.90;;;;;;5100771;28;20442;-67
2022/08/18 01:30:48;;;;;;;24.73;9.75;;;18.40;99.90;;;;;;5105448;28;20048;-67
2022/08/18 01:33:16;;;;;;;29.35;12.55;;;18.40;99.90;;;;;;5106746;28;20061;-67
2022/08/18 01:35:48;;;;;;;26.80;12.35;;;18.50;99.90;;;;;;5104939;28;20135;-67
2022/08/18 01:38:19;;;;;;;28.77;11.00;;;18.50;99.90;;;;;;5105722;28;20063;-67
2022/08/18 01:40:45;;;;;;;18.77;11.02;;;18.40;99.90;;;;;;5105688;28;20044;-67
2022/08/18 01:43:12;;;;;;;25.15;11.82;;;18.40;99.90;;;;;;5104891;28;20104;-67
2022/08/18 01:45:39;;;;;;;23.27;10.90;;;18.30;99.90;;;;;;5105785;28;20048;-67
2022/08/18 01:48:05;;;;;;;23.27;11.13;;;18.30;99.90;;;;;;5106141;28;20157;-67
2022/08/18 01:50:33;;;;;;;20.63;10.43;;;18.30;99.90;;;;;;5104409;28;20048;-67
2022/08/18 01:53:00;;;;;;;21.60;9.25;;;18.20;99.90;;;;;;5106441;28;20051;-67
2022/08/18 01:55:27;;;;;;;22.63;10.85;;;18.20;99.90;;;;;;5105463;28;20052;-67
2022/08/18 01:57:53;;;;;;;18.83;10.00;;;18.10;99.90;;;;;;5104478;28;20048;-67
2022/08/18 02:00:19;;;;;;;22.55;8.70;;;18.00;99.90;;;;;;5103921;28;20050;-67
2022/08/18 02:02:47;;;;;;;22.02;9.25;;;17.90;99.90;;;;;;5105679;28;20044;-67
2022/08/18 02:05:19;;;;;;;19.25;9.75;;;17.90;99.90;;;;;;5103018;28;20052;-67
2022/08/18 02:07:45;;;;;;;16.55;10.18;;;17.80;99.90;;;;;;5103798;28;20040;-67
2022/08/18 02:10:12;;;;;;;16.35;10.23;;;17.80;99.90;;;;;;5104762;28;20043;-67
2022/08/18 02:12:40;;;;;;;19.45;10.10;;;17.80;99.90;;;;;;5103656;28;20071;-67
2022/08/18 02:15:07;;;;;;;21.27;9.40;;;17.80;99.90;;;;;;5105066;28;20052;-67
2022/08/18 02:17:41;;;;;;;26.27;9.48;;;17.60;99.90;;;;;;5104318;28;20060;-67
2022/08/18 02:20:09;;;;;;;18.05;9.02;;;17.60;99.90;;;;;;5105134;28;20472;-67
2022/08/18 02:22:34;;;;;;;22.30;10.88;;;17.60;99.90;;;;;;5099090;28;20044;-67
2022/08/18 02:25:00;;;;;;;19.17;9.05;;;17.60;99.90;;;;;;5103958;28;20028;-67
2022/08/18 02:27:27;;;;;;;14.75;9.10;;;17.70;99.90;;;;;;5103528;28;20040;-67
2022/08/18 02:29:53;;;;;;;22.17;11.30;;;17.80;99.90;;;;;;5103779;28;20078;-67
2022/08/18 02:32:19;;;;;;;19.10;10.38;;;17.80;99.90;;;;;;5103089;28;20036;-67
2022/08/18 02:34:45;;;;;;;21.02;10.82;;;17.90;99.90;;;;;;5103670;28;20083;-67
2022/08/18 02:37:11;;;;;;;22.48;9.88;;;18.00;99.90;;;;;;5105036;28;20470;-67
2022/08/18 02:39:37;;;;;;;20.17;10.38;;;18.00;99.90;;;;;;5103934;28;20042;-67
2022/08/18 02:42:04;;;;;;;16.00;10.98;;;18.10;99.90;;;;;;5103533;28;20507;-67
2022/08/18 02:44:31;;;;;;;20.92;10.60;;;18.10;99.90;;;;;;5100691;28;20076;-67
2022/08/18 02:46:56;;;;;;;20.40;11.00;;;18.10;99.90;;;;;;5104049;28;20147;-67
2022/08/18 02:49:22;;;;;;;25.27;10.68;;;18.10;99.90;;;;;;5103666;28;20507;-67
2022/08/18 02:51:50;;;;;;;19.55;11.10;;;18.20;99.90;;;;;;5103237;28;20044;-67
2022/08/18 02:54:17;;;;;;;24.20;11.65;;;18.20;99.90;;;;;;5104695;28;20043;-67
2022/08/18 02:56:44;;;;;;;29.70;12.60;;;18.30;99.90;;;;;;5104870;28;20048;-67
2022/08/18 02:59:18;;;;;;;24.75;11.65;;;18.30;99.90;;;;;;5087411;28;20040;-67
2022/08/18 03:01:47;;;;;;;27.67;14.93;;;18.30;99.90;;;;;;5104234;28;20073;-67
2022/08/18 03:04:16;;;;;;;25.60;13.52;;;18.30;99.90;;;;;;5105874;28;20039;-67
2022/08/18 03:06:43;;;;;;;25.00;12.88;;;18.30;99.90;;;;;;5104510;28;20107;-67
2022/08/18 03:09:10;;;;;;;23.48;13.88;;;18.30;99.90;;;;;;5104464;28;20083;-67
2022/08/18 03:11:37;;;;;;;21.15;12.50;;;18.40;99.90;;;;;;5104092;28;20105;-67
2022/08/18 03:14:04;;;;;;;21.33;12.82;;;18.40;99.90;;;;;;5101405;28;20531;-67
2022/08/18 03:16:31;;;;;;;23.33;13.40;;;18.30;99.90;;;;;;5104310;28;20043;-67
2022/08/18 03:18:59;;;;;;;30.35;14.65;;;18.30;99.90;;;;;;5099060;28;20436;-67
2022/08/18 03:21:27;;;;;;;29.20;15.50;;;18.30;99.90;;;;;;5104284;28;20044;-67
2022/08/18 03:23:55;;;;;;;25.65;15.90;;;18.30;99.90;;;;;;5103496;28;20044;-67
2022/08/18 03:26:21;;;;;;;25.88;15.50;;;18.30;99.90;;;;;;5104396;28;20071;-67
2022/08/18 03:28:49;;;;;;;24.15;16.20;;;18.30;99.90;;;;;;5086846;28;20036;-67
2022/08/18 03:31:16;;;;;;;22.83;14.65;;;18.30;99.90;;;;;;5104796;28;20032;-67
2022/08/18 03:33:44;;;;;;;24.30;14.30;;;18.30;99.90;;;;;;5102190;28;20084;-67
2022/08/18 03:36:22;;;;;;;31.02;16.08;;;18.40;99.90;;;;;;5102375;28;20056;-67
2022/08/18 03:38:49;;;;;;;30.30;16.67;;;18.40;99.90;;;;;;5103782;28;20078;-67
2022/08/18 03:41:18;;;;;;;27.10;15.25;;;18.40;99.90;;;;;;5084213;28;20104;-67
2022/08/18 03:43:44;;;;;;;28.83;16.77;;;18.40;99.90;;;;;;5099978;28;20032;-67
2022/08/18 03:46:13;;;;;;;28.27;16.88;;;18.50;99.90;;;;;;5101660;28;20043;-67
2022/08/18 03:48:42;;;;;;;26.25;16.85;;;18.40;99.90;;;;;;5103731;28;20040;-67
2022/08/18 03:51:13;;;;;;;27.65;17.13;;;18.40;99.90;;;;;;5102341;28;20118;-67
2022/08/18 03:53:39;;;;;;;32.28;17.15;;;18.50;99.90;;;;;;5103212;28;20040;-67
2022/08/18 03:56:16;;;;;;;27.65;16.90;;;18.40;99.90;;;;;;5097963;28;20044;-67
2022/08/18 03:58:51;;;;;;;27.65;16.00;;;18.40;99.90;;;;;;5104220;28;20044;-66
2022/08/18 04:01:19;;;;;;;34.30;17.70;;;18.40;99.90;;;;;;5102281;28;20069;-67
2022/08/18 04:03:50;;;;;;;27.95;17.08;;;18.40;99.90;;;;;;5102225;28;20044;-67
2022/08/18 04:06:19;;;;;;;24.55;16.95;;;18.40;99.90;;;;;;5104154;28;20036;-67
2022/08/18 04:08:45;;;;;;;26.95;16.85;;;18.40;99.90;;;;;;5103301;28;20052;-67
2022/08/18 04:11:14;;;;;;;25.52;15.60;;;18.40;99.90;;;;;;5104953;28;20044;-67
2022/08/18 04:13:40;;;;;;;27.27;15.98;;;18.40;99.90;;;;;;5099937;28;20040;-67
2022/08/18 04:16:06;;;;;;;30.27;17.48;;;18.50;99.90;;;;;;5102211;28;20044;-67
2022/08/18 04:18:32;;;;;;;31.25;16.95;;;18.50;99.90;;;;;;5099956;28;20052;-67
2022/08/18 04:21:07;;;;;;;26.33;15.75;;;18.50;99.90;;;;;;5102550;28;20475;-67
2022/08/18 04:23:34;;;;;;;25.67;14.35;;;18.40;99.90;;;;;;5101626;28;20048;-67
2022/08/18 04:26:00;;;;;;;37.65;16.33;;;18.50;99.90;;;;;;5103599;28;20111;-67
2022/08/18 04:28:27;;;;;;;28.23;16.25;;;18.40;99.90;;;;;;5102036;28;20059;-67
2022/08/18 04:30:58;;;;;;;31.23;16.25;;;18.40;99.90;;;;;;5102297;28;20096;-67
2022/08/18 04:33:25;;;;;;;32.45;15.52;;;18.30;99.90;;;;;;5104576;28;20393;-67
2022/08/18 04:35:52;;;;;;;32.55;15.20;;;18.40;99.90;;;;;;5104117;28;20051;-67
2022/08/18 04:38:17;;;;;;;30.80;16.13;;;18.40;99.90;;;;;;5100810;28;20109;-67
2022/08/18 04:40:43;;;;;;;28.58;14.50;;;18.40;99.90;;;;;;5102304;28;20044;-66
2022/08/18 04:43:14;;;;;;;33.85;16.25;;;18.50;99.90;;;;;;5102785;28;20036;-67
2022/08/18 04:45:46;;;;;;;31.10;14.68;;;18.50;99.90;;;;;;5103057;28;20099;-67
2022/08/18 04:48:14;;;;;;;32.15;15.23;;;18.50;99.90;;;;;;5103476;28;20381;-67
2022/08/18 04:50:41;;;;;;;30.95;14.65;;;18.60;99.90;;;;;;5104046;28;20047;-67
2022/08/18 04:55:52;;;;;;;31.30;15.85;;;18.60;99.90;;;;;;5105232;28;20507;-67
2022/08/18 04:58:20;;;;;;;25.25;14.73;;;18.50;99.90;;;;;;5105853;28;20103;-67
2022/08/18 05:00:46;;;;;;;27.38;14.07;;;18.50;99.90;;;;;;5107345;28;20065;-67
2022/08/18 05:03:12;;;;;;;22.73;14.10;;;18.50;99.90;;;;;;5105881;28;20052;-68
2022/08/18 05:05:38;;;;;;;34.70;15.07;;;18.60;99.90;;;;;;5106144;28;20047;-66
2022/08/18 05:08:04;;;;;;;32.63;15.15;;;18.60;99.90;;;;;;5105400;28;20423;-67
2022/08/18 05:10:30;;;;;;;27.08;13.82;;;18.50;99.90;;;;;;5084622;28;20087;-66
2022/08/18 05:12:56;;;;;;;24.27;13.50;;;18.50;99.90;;;;;;5106040;28;20044;-66
2022/08/18 05:15:22;;;;;;;30.75;16.23;;;18.60;99.90;;;;;;5103915;28;20059;-67
2022/08/18 05:17:48;;;;;;;23.05;14.20;;;18.50;99.90;;;;;;5106006;28;20108;-68
2022/08/18 05:20:13;;;;;;;28.65;15.57;;;18.50;99.90;;;;;;5105628;28;20068;-66
2022/08/18 05:22:42;;;;;;;27.70;13.80;;;18.50;99.90;;;;;;5105138;28;20075;-68
2022/08/18 05:25:10;;;;;;;25.77;13.88;;;18.60;99.90;;;;;;5106749;28;20486;-68
2022/08/18 05:27:41;;;;;;;30.15;14.52;;;18.50;99.90;;;;;;5102709;28;20066;-70
2022/08/18 05:30:08;;;;;;;26.55;13.70;;;18.50;99.90;;;;;;5104820;28;20067;-67
2022/08/18 05:32:38;;;;;;;23.83;13.05;;;18.60;99.90;;;;;;5104510;28;20044;-69
2022/08/18 05:35:13;;;;;;;22.92;12.98;;;18.50;99.90;;;;;;5103826;28;20067;-69
2022/08/18 05:38:14;;;;;;;22.95;12.82;;;18.60;99.90;;;;;;5105895;28;20459;-69
2022/08/18 05:40:42;;;;;;;26.70;14.27;;;18.60;99.90;;;;;;5105138;28;20423;-69
2022/08/18 05:43:08;;;;;;;26.15;13.85;;;18.60;99.90;;;;;;5103917;28;20235;-69
2022/08/18 05:45:34;;;;;;;26.35;13.40;;;18.60;99.90;;;;;;5099477;28;20473;-69
2022/08/18 05:48:00;;;;;;;29.92;14.07;;;18.60;99.90;;;;;;5094272;28;20047;-69
2022/08/18 05:50:28;;;;;;;23.08;12.77;;;18.60;99.90;;;;;;5097148;28;20321;-71
2022/08/18 05:53:12;;;;;;;27.00;13.38;;;18.60;99.90;;;;;;5100832;28;20044;-70
2022/08/18 05:58:37;;;;;;;21.45;12.27;;;18.50;99.90;;;;;;5104184;28;20048;-70
2022/08/18 06:01:11;;;;;;;22.65;12.38;;;18.60;99.90;;;;;;5104517;28;20115;-71
2022/08/18 06:03:53;;;;;;;19.02;12.20;;;18.70;99.90;;;;;;5104456;28;20052;-71
2022/08/18 06:06:31;;;;;;;16.25;11.30;;;18.70;99.90;;;;;;5105405;28;20051;-70
2022/08/18 06:09:15;;;;;;;21.95;11.60;;;18.80;99.90;;;;;;5104669;28;20044;-70
2022/08/18 06:11:42;;;;;;;17.77;10.70;;;18.80;99.90;;;;;;5103734;28;20095;-71
2022/08/18 06:14:08;;;;;;;19.42;11.80;;;18.90;99.90;;;;;;5102537;28;20047;-71
2022/08/18 06:16:55;;;;;;;20.88;10.80;;;19.00;99.90;;;;;;5086627;28;20131;-70
2022/08/18 06:19:27;;;;;;;17.92;11.10;;;19.00;99.90;;;;;;5100790;28;20099;-70
2022/08/18 06:22:20;;;;;;;20.77;10.50;;;19.20;99.90;;;;;;5105012;28;20048;-71
2022/08/18 06:24:48;;;;;;;19.30;11.02;;;19.30;99.90;;;;;;5098726;28;20063;-71
2022/08/18 06:27:27;;;;;;;18.73;9.85;;;19.30;99.90;;;;;;5106183;28;20370;-72
2022/08/18 06:30:09;;;;;;;20.02;11.60;;;19.30;99.90;;;;;;5103951;28;20056;-72
2022/08/18 06:32:52;;;;;;;18.77;10.15;;;19.30;99.90;;;;;;5104073;28;20048;-72
2022/08/18 06:35:18;;;;;;;20.42;10.85;;;19.30;99.90;;;;;;5104924;28;20424;-70
2022/08/18 06:40:40;;;;;;;13.68;10.80;;;19.30;99.90;;;;;;5095216;28;20114;-71
2022/08/18 06:43:14;;;;;;;18.33;11.35;;;19.30;99.90;;;;;;5101465;28;20047;-75
2022/08/18 06:45:43;;;;;;;19.65;11.93;;;19.30;99.90;;;;;;5100736;28;20081;-75
2022/08/18 06:48:27;;;;;;;18.40;11.90;;;19.30;99.90;;;;;;5102465;28;20099;-71
2022/08/18 06:50:59;;;;;;;18.60;12.30;;;19.30;99.90;;;;;;5102434;28;20090;-72
2022/08/18 06:53:51;;;;;;;15.73;11.25;;;19.30;99.90;;;;;;5095881;28;20044;-72
2022/08/18 06:56:35;;;;;;;19.00;12.25;;;19.30;99.90;;;;;;5103878;28;20491;-72
2022/08/18 06:59:33;;;;;;;17.50;12.07;;;19.30;99.90;;;;;;5103791;28;20044;-72
2022/08/18 07:02:15;;;;;;;20.80;12.73;;;19.40;99.90;;;;;;5103073;28;20408;-72
2022/08/18 07:05:04;;;;;;;19.55;12.80;;;19.30;99.90;;;;;;5102127;28;20546;-72
2022/08/18 07:07:38;;;;;;;17.13;12.85;;;19.30;99.90;;;;;;5102288;28;20067;-72
2022/08/18 07:10:06;;;;;;;25.30;14.00;;;19.30;99.90;;;;;;5103892;28;20051;-72
2022/08/18 07:12:32;;;;;;;24.20;13.27;;;19.40;99.90;;;;;;5102280;28;20058;-72
2022/08/18 07:15:02;;;;;;;21.52;13.43;;;19.30;99.90;;;;;;5100908;28;20048;-72
2022/08/18 07:17:36;;;;;;;21.40;13.07;;;19.50;99.90;;;;;;5100690;28;20105;-72
2022/08/18 07:20:20;;;;;;;17.45;12.32;;;19.50;99.90;;;;;;5095465;28;20186;-72
2022/08/18 07:22:58;;;;;;;17.13;13.07;;;19.50;99.90;;;;;;5103284;28;20100;-72
2022/08/18 07:25:49;;;;;;;20.13;12.07;;;19.40;99.90;;;;;;5080332;28;20068;-72
2022/08/18 07:28:49;;;;;;;23.67;12.45;;;19.50;99.90;;;;;;5104221;28;20460;-72
2022/08/18 07:31:47;;;;;;;20.38;12.95;;;19.50;99.90;;;;;;5095147;28;20079;-72
2022/08/18 07:34:26;;;;;;;15.83;11.33;;;19.40;99.90;;;;;;5102203;28;20055;-72
2022/08/18 07:37:24;;;;;;;11.45;10.25;;;19.50;99.90;;;;;;5085120;28;20078;-72
2022/08/18 07:39:57;;;;;;;17.77;11.93;;;19.50;99.90;;;;;;5099437;28;20052;-72
2022/08/18 07:42:47;;;;;;;18.42;11.13;;;19.60;99.90;;;;;;5093866;28;20052;-72
2022/08/18 07:45:28;;;;;;;15.48;10.43;;;19.50;99.90;;;;;;5101400;28;20040;-70
2022/08/18 07:47:59;;;;;;;18.90;11.30;;;19.60;99.90;;;;;;5103911;28;20055;-76
2022/08/18 07:50:26;;;;;;;14.38;11.18;;;19.50;99.90;;;;;;5086623;28;20051;-75
2022/08/18 07:53:38;;;;;;;13.93;10.45;;;19.50;99.90;;;;;;5087890;28;20112;-71
2022/08/18 07:56:26;;;;;;;15.57;11.23;;;19.50;99.90;;;;;;5096243;28;20055;-71
2022/08/18 07:59:05;;;;;;;20.45;10.73;;;19.60;99.90;;;;;;5079990;28;20044;-72
2022/08/18 08:01:39;;;;;;;14.48;10.30;;;19.60;99.90;;;;;;5099042;28;20056;-72
2022/08/18 08:04:34;;;;;;;14.15;9.88;;;19.60;99.90;;;;;;5103363;28;20040;-72
2022/08/18 08:07:08;;;;;;;17.30;9.32;;;19.70;99.90;;;;;;5102626;28;20109;-72
2022/08/18 08:09:50;;;;;;;15.35;9.50;;;19.70;99.90;;;;;;5102283;28;20044;-72
2022/08/18 08:12:51;;;;;;;11.85;7.85;;;19.80;99.90;;;;;;5099551;28;20044;-72
2022/08/18 08:15:21;;;;;;;16.38;8.50;;;20.00;99.90;;;;;;5060631;28;20765;-72
2022/08/18 08:17:53;;;;;;;13.43;9.20;;;20.20;99.90;;;;;;5063660;28;20096;-72
2022/08/18 08:20:40;;;;;;;14.95;8.23;;;20.40;99.90;;;;;;5064310;28;20131;-72
2022/08/18 08:23:39;;;;;;;21.63;9.05;;;20.40;99.90;;;;;;5081589;28;20041;-72
2022/08/18 08:26:26;;;;;;;21.45;6.38;;;20.50;99.90;;;;;;5080562;28;20056;-72
2022/08/18 08:29:31;;;;;;;8.43;4.93;;;20.40;99.90;;;;;;5065341;28;20049;-72
2022/08/18 08:32:24;;;;;;;15.90;6.43;;;20.30;99.90;;;;;;5083723;28;20048;-72
2022/08/18 08:34:54;;;;;;;14.98;6.50;;;20.20;99.90;;;;;;5053978;28;20148;-72
2022/08/18 08:37:29;;;;;;;14.00;6.63;;;20.20;99.90;;;;;;5068184;28;20044;-72
2022/08/18 08:40:01;;;;;;;12.27;6.90;;;20.20;99.90;;;;;;5067041;28;20059;-72
2022/08/18 08:42:40;;;;;;;14.52;7.35;;;20.20;99.90;;;;;;5064749;28;20056;-72
2022/08/18 08:45:12;;;;;;;19.33;7.70;;;20.30;99.90;;;;;;5059193;28;20127;-72
2022/08/18 08:47:43;;;;;;;15.15;7.15;;;20.40;99.90;;;;;;5084419;28;20579;-72
2022/08/18 08:50:18;;;;;;;15.18;7.10;;;20.40;99.90;;;;;;5076361;28;20091;-72
2022/08/18 08:52:57;;;;;;;17.77;8.38;;;20.40;99.90;;;;;;5106140;28;20036;-72
2022/08/18 08:55:34;;;;;;;12.68;7.43;;;20.50;99.90;;;;;;5095688;28;20058;-75
2022/08/18 08:58:25;;;;;;;11.55;6.57;;;20.50;99.90;;;;;;5107184;28;20044;-73
2022/08/18 09:00:52;;;;;;;12.60;5.85;;;20.50;99.90;;;;;;5106580;28;20039;-73
2022/08/18 09:03:46;;;;;;;16.48;5.43;;;20.50;99.90;;;;;;5105765;28;20060;-67
2022/08/18 09:06:17;;;;;;;14.07;5.53;;;20.50;99.90;;;;;;5105352;28;20391;-71
2022/08/18 09:09:21;;;;;;;12.30;5.80;;;20.50;99.90;;;;;;5106631;28;20044;-72
2022/08/18 09:12:25;;;;;;;12.00;5.47;;;20.50;99.90;;;;;;5106541;28;20107;-73
2022/08/18 09:15:00;;;;;;;10.02;5.50;;;20.50;99.90;;;;;;5106310;28;20045;-73
2022/08/18 09:17:48;;;;;;;12.50;5.00;;;20.60;99.90;;;;;;5099156;28;20052;-73
2022/08/18 09:20:45;;;;;;;12.23;5.35;;;20.60;99.90;;;;;;5106352;28;20044;-73
2022/08/18 09:23:35;;;;;;;10.43;5.15;;;20.70;99.90;;;;;;5099543;28;20075;-73
2022/08/18 09:26:19;;;;;;;;;;;20.80;99.90;;;;;;5096151;28;20052;-73
2022/08/18 09:28:58;;;;;;;12.48;4.60;;;20.90;99.90;;;;;;5106653;28;19953;-73
2022/08/18 09:31:25;;;;;;;14.82;5.25;;;20.90;99.90;;;;;;5098286;28;20060;-73
2022/08/18 09:34:03;;;;;;;11.27;4.20;;;20.90;99.90;;;;;;5105853;28;20056;-73
2022/08/18 09:36:40;;;;;;;11.18;4.50;;;20.90;99.90;;;;;;5099433;28;20052;-73
2022/08/18 09:42:04;;;;;;;7.70;3.35;;;21.00;99.90;;;;;;5105885;28;20047;-73
2022/08/18 09:44:45;;;;;;;7.93;3.55;;;21.10;99.90;;;;;;5104269;28;20181;-73
2022/08/18 09:47:31;;;;;;;9.15;3.95;;;21.00;99.90;;;;;;5104337;28;20069;-72
2022/08/18 09:50:03;;;;;;;9.77;3.60;;;21.00;99.90;;;;;;5098818;28;20044;-73
2022/08/18 09:52:34;;;;;;;7.60;3.22;;;21.10;99.90;;;;;;5104218;28;20519;-72
2022/08/18 09:55:24;;;;;;;8.70;3.72;;;21.20;99.90;;;;;;5100554;28;20043;-73
2022/08/18 09:58:32;;;;;;;8.82;3.67;;;21.40;99.90;;;;;;5105387;28;20127;-72
2022/08/18 10:01:26;;;;;;;8.55;3.03;;;21.50;99.90;;;;;;5090964;28;20059;-72
2022/08/18 10:04:14;;;;;;;7.10;3.00;;;21.50;99.90;;;;;;5101885;28;20050;-73
2022/08/18 10:06:47;;;;;;;8.00;3.00;;;21.60;99.90;;;;;;5104758;28;20048;-72
2022/08/18 10:09:46;;;;;;;10.25;3.85;;;21.80;99.90;;;;;;5102307;28;20040;-73
2022/08/18 10:12:24;;;;;;;7.13;3.33;;;21.90;99.90;;;;;;5101338;28;20047;-72
2022/08/18 10:15:11;;;;;;;5.32;2.83;;;22.00;99.90;;;;;;5096553;28;20056;-73
2022/08/18 10:17:45;;;;;;;6.13;2.95;;;22.20;99.90;;;;;;5105644;28;20068;-73
2022/08/18 10:20:52;;;;;;;8.15;2.90;;;22.30;99.90;;;;;;5106494;28;20109;-73
2022/08/18 10:23:44;;;;;;;6.82;2.90;;;22.30;99.90;;;;;;5103503;28;20060;-73
2022/08/18 10:26:48;;;;;;;8.52;3.30;;;22.30;99.90;;;;;;5076379;28;20056;-73
2022/08/18 10:29:22;;;;;;;8.60;2.80;;;22.30;99.90;;;;;;5100699;28;20040;-73
2022/08/18 10:31:54;;;;;;;6.05;2.88;;;22.30;99.90;;;;;;5105241;28;20048;-73
2022/08/18 10:34:39;;;;;;;4.60;2.50;;;22.30;99.90;;;;;;5103627;28;20530;-73
2022/08/18 10:37:40;;;;;;;8.48;3.20;;;22.20;99.90;;;;;;5104411;28;20044;-73
2022/08/18 10:40:19;;;;;;;5.68;2.65;;;22.20;99.90;;;;;;5098159;28;20048;-73
2022/08/18 10:42:54;;;;;;;5.65;2.80;;;22.20;99.90;;;;;;5105766;28;20047;-73
2022/08/18 10:45:48;;;;;;;4.57;2.63;;;22.20;99.90;;;;;;5105061;28;20516;-73
2022/08/18 10:48:29;;;;;;;5.88;2.70;;;22.30;99.90;;;;;;5104160;28;20035;-72
2022/08/18 10:51:07;;;;;;;8.13;2.90;;;22.40;99.90;;;;;;5103176;28;20051;-72
2022/08/18 10:53:39;;;;;;;8.25;2.97;;;22.30;99.90;;;;;;5102224;28;20044;-72
2022/08/18 10:56:10;;;;;;;7.43;2.60;;;22.40;99.90;;;;;;5094182;28;20496;-73
2022/08/18 10:59:06;;;;;;;6.38;2.70;;;22.40;99.90;;;;;;5103782;28;20047;-73
2022/08/18 11:01:45;;;;;;;6.30;3.22;;;22.40;99.90;;;;;;5103955;28;20044;-72
2022/08/18 11:04:35;;;;;;;6.43;3.08;;;22.30;99.90;;;;;;5104239;28;20047;-72
2022/08/18 11:07:14;;;;;;;9.05;2.80;;;22.30;99.90;;;;;;5098769;28;20170;-73
2022/08/18 11:09:42;;;;;;;6.40;2.70;;;22.40;99.90;;;;;;5104121;28;20032;-73
2022/08/18 11:12:11;;;;;;;5.28;3.20;;;22.40;99.90;;;;;;5097445;28;20043;-73
2022/08/18 11:14:46;;;;;;;9.00;3.63;;;22.50;99.90;;;;;;5105029;28;20078;-73
2022/08/18 11:18:03;;;;;;;7.70;4.28;;;22.50;99.90;;;;;;5104585;28;20048;-73
2022/08/18 11:20:30;;;;;;;7.97;5.20;;;22.60;99.90;;;;;;5099686;28;20380;-73
2022/08/18 11:22:59;;;;;;;10.60;5.07;;;22.60;99.90;;;;;;5102812;28;20074;-73
2022/08/18 11:25:37;;;;;;;5.50;3.50;;;22.70;99.90;;;;;;5103617;28;20040;-73
2022/08/18 11:28:22;;;;;;;9.80;3.17;;;22.80;99.90;;;;;;5102443;28;20047;-73
2022/08/18 11:30:52;;;;;;;5.13;2.85;;;22.90;99.90;;;;;;5099781;28;20050;-73
2022/08/18 11:33:20;;;;;;;7.65;2.88;;;23.10;99.90;;;;;;5104381;28;20079;-72
2022/08/18 11:35:52;;;;;;;9.65;3.47;;;23.20;99.90;;;;;;5103475;28;20055;-73
2022/08/18 11:38:18;;;;;;;6.00;3.53;;;23.30;99.90;;;;;;5103884;28;20136;-73
2022/08/18 11:40:55;;;;;;;9.07;3.38;;;23.30;99.90;;;;;;5103605;28;20047;-72
2022/08/18 11:43:31;;;;;;;6.43;3.10;;;23.40;99.90;;;;;;5102003;28;20063;-73
2022/08/18 11:46:11;;;;;;;7.85;4.55;;;23.40;99.90;;;;;;5102214;28;20097;-72
2022/08/18 11:48:41;;;;;;;6.05;2.60;;;23.30;99.90;;;;;;5101223;28;20090;-73
2022/08/18 11:51:26;;;;;;;8.52;3.30;;;23.20;99.90;;;;;;5102509;28;20040;-69
2022/08/18 11:53:59;;;;;;;6.95;2.72;;;23.30;99.90;;;;;;5080049;28;20058;-70
2022/08/18 11:56:31;;;;;;;6.88;3.35;;;23.20;99.90;;;;;;5098710;28;20082;-70
2022/08/18 11:59:04;;;;;;;6.07;3.20;;;23.10;99.90;;;;;;5104433;28;20044;-70
2022/08/18 12:01:44;;;;;;;10.88;4.13;;;23.20;99.90;;;;;;5098242;28;20047;-70
2022/08/18 12:04:13;;;;;;;5.93;2.58;;;23.20;99.90;;;;;;5107194;28;20044;-70
2022/08/18 12:06:51;;;;;;;7.13;2.83;;;23.20;99.90;;;;;;5108861;28;20051;-70
2022/08/18 12:09:22;;;;;;;4.85;2.60;;;23.20;99.90;;;;;;5108023;28;20479;-70
2022/08/18 12:11:59;;;;;;;4.35;2.67;;;23.20;99.90;;;;;;5099119;28;20076;-70
2022/08/18 12:14:32;;;;;;;8.90;3.45;;;23.20;99.90;;;;;;5108910;28;20040;-70
2022/08/18 12:16:58;;;;;;;5.95;2.58;;;23.20;99.90;;;;;;5108166;28;20051;-70
2022/08/18 12:19:26;;;;;;;7.63;2.97;;;23.20;99.90;;;;;;5105043;28;20048;-70
2022/08/18 12:21:58;;;;;;;7.68;3.30;;;23.20;99.90;;;;;;5106442;28;20522;-70
2022/08/18 12:24:32;;;;;;;9.23;3.58;;;23.30;99.90;;;;;;5101861;28;20055;-70
2022/08/18 12:26:58;;;;;;;6.32;2.90;;;23.50;99.90;;;;;;5097555;28;20048;-70
2022/08/18 12:29:25;;;;;;;5.70;2.40;;;23.70;99.90;;;;;;5103562;28;20048;-70
2022/08/18 12:31:54;;;;;;;3.55;2.70;;;23.80;99.90;;;;;;5105634;28;20040;-70
2022/08/18 12:34:25;;;;;;;6.28;2.55;;;24.10;99.90;;;;;;5105510;28;20048;-70
2022/08/18 12:36:55;;;;;;;8.15;3.45;;;24.20;99.90;;;;;;5106097;28;20090;-71
2022/08/18 12:39:22;;;;;;;4.75;2.60;;;24.30;99.90;;;;;;5105072;28;20116;-71
2022/08/18 12:41:48;;;;;;;4.38;2.30;;;24.40;99.90;;;;;;5106695;28;20047;-70
2022/08/18 12:44:14;;;;;;;7.88;2.58;;;24.60;99.90;;;;;;5104332;28;20445;-67
2022/08/18 12:46:41;;;;;;;5.35;2.45;;;24.60;99.90;;;;;;5105285;28;20048;-67
2022/08/18 12:49:16;;;;;;;13.95;3.35;;;24.80;99.90;;;;;;5105045;28;20051;-70
2022/08/18 12:51:43;;;;;;;10.82;3.83;;;25.00;99.90;;;;;;5106502;28;20040;-69
2022/08/18 12:54:09;;;;;;;7.80;3.75;;;24.90;99.90;;;;;;5103513;28;20042;-69
2022/08/18 12:56:35;;;;;;;9.02;3.55;;;24.80;99.90;;;;;;5104721;28;20507;-69
2022/08/18 12:59:04;;;;;;;7.40;3.13;;;24.80;99.90;;;;;;5105829;28;20039;-67
2022/08/18 13:01:31;;;;;;;11.80;3.42;;;24.90;99.90;;;;;;5101109;28;20134;-67
2022/08/18 13:03:58;;;;;;;8.85;2.80;;;24.90;99.90;;;;;;5105616;28;20048;-67
2022/08/18 13:06:24;;;;;;;5.15;2.55;;;25.00;99.90;;;;;;5106091;28;20052;-70
2022/08/18 13:08:51;;;;;;;6.50;3.10;;;25.00;99.90;;;;;;5106769;28;20104;-73
2022/08/18 13:11:21;;;;;;;6.70;2.92;;;25.10;99.90;;;;;;5104152;28;20048;-72
2022/08/18 13:13:48;;;;;;;6.93;2.80;;;25.30;99.90;;;;;;5101872;28;20047;-72
2022/08/18 13:16:14;;;;;;;6.97;2.60;;;25.40;99.90;;;;;;5102352;28;20082;-71
2022/08/18 13:18:43;;;;;;;5.93;2.60;;;25.60;99.90;;;;;;5099637;28;20044;-71
2022/08/18 13:21:14;;;;;;;5.32;2.25;;;25.70;99.90;;;;;;5101921;28;20051;-71
2022/08/18 13:23:41;;;;;;;4.50;2.33;;;25.90;99.90;;;;;;5104598;28;20048;-69
2022/08/18 13:26:14;;;;;;;4.45;2.30;;;26.00;99.90;;;;;;5105328;28;20095;-70
2022/08/18 13:28:41;;;;;;;4.85;2.30;;;26.20;99.90;;;;;;5106837;28;20040;-71
2022/08/18 13:31:07;;;;;;;5.72;2.20;;;26.40;99.90;;;;;;5106447;28;20124;-70